sensor_id;sensor_type;location;lat;lon;timestamp;temperature;humidity
16968;DHT22;64862;54.398;10.126;2023-12-20T00:09:45;6.50;99.90
16968;DHT22;64862;54.398;10.126;2023-12-20T00:19:49;6.40;99.90
16968;DHT22;64862;54.398;10.126;2023-12-20T00:29:51;6.40;99.90
16968;DHT22;64862;54.398;10.126;2023-12-20T00:39:55;6.60;99.90
16968;DHT22;64862;54.398;10.126;2023-12-20T00:49:57;6.80;99.90
16968;DHT22;64862;54.398;10.126;2023-12-20T01:00:01;6.80;99.90
16968;DHT22;64862;54.398;10.126;2023-12-20T01:10:03;6.70;99.90
16968;DHT22;64862;54.398;10.126;2023-12-20T01:20:09;6.70;99.90
16968;DHT22;64862;54.398;10.126;2023-12-20T01:30:11;6.60;99.90
16968;DHT22;64862;54.398;10.126;2023-12-20T01:40:15;6.50;99.90
16968;DHT22;64862;54.398;10.126;2023-12-20T01:50:17;6.60;99.90
16968;DHT22;64862;54.398;10.126;2023-12-20T02:00:21;6.70;99.90
16968;DHT22;64862;54.398;10.126;2023-12-20T02:10:27;6.80;99.90
16968;DHT22;64862;54.398;10.126;2023-12-20T02:20:31;6.70;99.90
16968;DHT22;64862;54.398;10.126;2023-12-20T02:30:35;6.60;99.90
16968;DHT22;64862;54.398;10.126;2023-12-20T02:40:37;6.80;99.90
16968;DHT22;64862;54.398;10.126;2023-12-20T02:50:40;6.90;99.90
16968;DHT22;64862;54.398;10.126;2023-12-20T03:00:42;6.80;99.90
16968;DHT22;64862;54.398;10.126;2023-12-20T03:10:46;6.70;99.90
16968;DHT22;64862;54.398;10.126;2023-12-20T03:20:48;6.70;99.90
16968;DHT22;64862;54.398;10.126;2023-12-20T03:30:54;6.80;99.90
16968;DHT22;64862;54.398;10.126;2023-12-20T03:41:04;6.80;99.90
16968;DHT22;64862;54.398;10.126;2023-12-20T03:51:08;6.90;99.90
16968;DHT22;64862;54.398;10.126;2023-12-20T04:01:10;6.90;99.90
16968;DHT22;64862;54.398;10.126;2023-12-20T04:11:14;6.90;99.90
16968;DHT22;64862;54.398;10.126;2023-12-20T04:21:17;6.90;99.90
16968;DHT22;64862;54.398;10.126;2023-12-20T04:31:20;6.90;99.90
16968;DHT22;64862;54.398;10.126;2023-12-20T04:41:23;6.90;99.90
16968;DHT22;64862;54.398;10.126;2023-12-20T04:51:27;6.90;99.90
16968;DHT22;64862;54.398;10.126;2023-12-20T05:01:29;6.90;99.90
16968;DHT22;64862;54.398;10.126;2023-12-20T05:11:32;7.00;99.90
16968;DHT22;64862;54.398;10.126;2023-12-20T05:21:36;7.00;99.90
16968;DHT22;64862;54.398;10.126;2023-12-20T05:31:40;6.90;99.90
16968;DHT22;64862;54.398;10.126;2023-12-20T05:41:42;6.90;99.90
16968;DHT22;64862;54.398;10.126;2023-12-20T05:51:45;6.90;99.90
16968;DHT22;64862;54.398;10.126;2023-12-20T06:01:47;7.00;99.90
16968;DHT22;64862;54.398;10.126;2023-12-20T06:11:51;7.10;99.90
16968;DHT22;64862;54.398;10.126;2023-12-20T06:21:53;7.10;99.90
16968;DHT22;64862;54.398;10.126;2023-12-20T06:31:58;7.10;99.90
16968;DHT22;64862;54.398;10.126;2023-12-20T06:42:02;6.90;99.90
16968;DHT22;64862;54.398;10.126;2023-12-20T06:52:06;6.60;99.90
16968;DHT22;64862;54.398;10.126;2023-12-20T07:02:08;6.70;99.90
16968;DHT22;64862;54.398;10.126;2023-12-20T07:12:13;6.60;99.90
16968;DHT22;64862;54.398;10.126;2023-12-20T07:22:15;6.70;99.90
16968;DHT22;64862;54.398;10.126;2023-12-20T07:32:19;6.70;99.90
16968;DHT22;64862;54.398;10.126;2023-12-20T07:42:21;6.70;99.90
16968;DHT22;64862;54.398;10.126;2023-12-20T07:52:26;6.80;99.90
16968;DHT22;64862;54.398;10.126;2023-12-20T08:02:28;6.70;99.90
16968;DHT22;64862;54.398;10.126;2023-12-20T08:12:31;6.70;99.90
16968;DHT22;64862;54.398;10.126;2023-12-20T08:22:34;6.80;99.90
16968;DHT22;64862;54.398;10.126;2023-12-20T08:32:37;6.80;99.90
16968;DHT22;64862;54.398;10.126;2023-12-20T08:42:39;6.80;99.90
16968;DHT22;64862;54.398;10.126;2023-12-20T08:52:43;6.50;99.90
16968;DHT22;64862;54.398;10.126;2023-12-20T09:02:45;6.50;99.90
16968;DHT22;64862;54.398;10.126;2023-12-20T09:12:49;6.40;99.90
16968;DHT22;64862;54.398;10.126;2023-12-20T09:22:51;6.30;99.90
16968;DHT22;64862;54.398;10.126;2023-12-20T09:32:54;6.30;99.90
16968;DHT22;64862;54.398;10.126;2023-12-20T09:42:58;6.20;99.90
16968;DHT22;64862;54.398;10.126;2023-12-20T09:53:02;6.30;99.90
16968;DHT22;64862;54.398;10.126;2023-12-20T10:03:06;6.20;99.90
16968;DHT22;64862;54.398;10.126;2023-12-20T10:13:12;6.00;99.90
16968;DHT22;64862;54.398;10.126;2023-12-20T10:23:15;6.10;99.90
16968;DHT22;64862;54.398;10.126;2023-12-20T10:33:25;6.30;99.90
16968;DHT22;64862;54.398;10.126;2023-12-20T10:43:28;6.20;99.90
16968;DHT22;64862;54.398;10.126;2023-12-20T10:53:32;6.30;99.90
16968;DHT22;64862;54.398;10.126;2023-12-20T11:03:37;6.50;99.90
16968;DHT22;64862;54.398;10.126;2023-12-20T11:13:53;6.30;99.90
16968;DHT22;64862;54.398;10.126;2023-12-20T11:23:56;6.50;99.90
16968;DHT22;64862;54.398;10.126;2023-12-20T11:34:13;6.50;99.90
16968;DHT22;64862;54.398;10.126;2023-12-20T11:44:17;6.30;99.90
16968;DHT22;64862;54.398;10.126;2023-12-20T11:54:21;6.20;99.90
16968;DHT22;64862;54.398;10.126;2023-12-20T12:04:23;6.20;99.90
16968;DHT22;64862;54.398;10.126;2023-12-20T12:14:27;6.50;99.90
16968;DHT22;64862;54.398;10.126;2023-12-20T12:24:29;6.80;99.90
16968;DHT22;64862;54.398;10.126;2023-12-20T12:34:32;6.60;99.90
16968;DHT22;64862;54.398;10.126;2023-12-20T12:44:34;6.10;99.90
16968;DHT22;64862;54.398;10.126;2023-12-20T12:54:38;6.10;99.90
16968;DHT22;64862;54.398;10.126;2023-12-20T13:04:40;6.20;99.90
16968;DHT22;64862;54.398;10.126;2023-12-20T13:14:44;6.40;99.90
16968;DHT22;64862;54.398;10.126;2023-12-20T13:24:46;6.60;99.90
16968;DHT22;64862;54.398;10.126;2023-12-20T13:34:50;6.80;99.90
16968;DHT22;64862;54.398;10.126;2023-12-20T13:44:52;6.90;99.90
16968;DHT22;64862;54.398;10.126;2023-12-20T13:54:55;7.00;99.90
16968;DHT22;64862;54.398;10.126;2023-12-20T14:04:57;6.80;99.90
16968;DHT22;64862;54.398;10.126;2023-12-20T14:15:00;6.70;99.90
16968;DHT22;64862;54.398;10.126;2023-12-20T14:25:03;6.50;99.90
16968;DHT22;64862;54.398;10.126;2023-12-20T14:35:07;6.40;99.90
16968;DHT22;64862;54.398;10.126;2023-12-20T14:45:09;6.30;99.90
16968;DHT22;64862;54.398;10.126;2023-12-20T14:55:13;6.20;99.90
16968;DHT22;64862;54.398;10.126;2023-12-20T15:05:16;6.20;99.90
16968;DHT22;64862;54.398;10.126;2023-12-20T15:15:20;6.20;99.90
16968;DHT22;64862;54.398;10.126;2023-12-20T15:25:22;6.20;99.90
16968;DHT22;64862;54.398;10.126;2023-12-20T15:35:25;6.10;99.90
16968;DHT22;64862;54.398;10.126;2023-12-20T15:45:27;6.00;99.90
16968;DHT22;64862;54.398;10.126;2023-12-20T15:55:31;6.00;99.90
16968;DHT22;64862;54.398;10.126;2023-12-20T16:05:33;5.90;99.90
16968;DHT22;64862;54.398;10.126;2023-12-20T16:15:36;6.00;99.90
16968;DHT22;64862;54.398;10.126;2023-12-20T16:25:38;6.10;99.90
16968;DHT22;64862;54.398;10.126;2023-12-20T16:35:42;6.10;99.90
16968;DHT22;64862;54.398;10.126;2023-12-20T16:45:44;6.10;99.90
16968;DHT22;64862;54.398;10.126;2023-12-20T16:55:48;6.10;99.90
16968;DHT22;64862;54.398;10.126;2023-12-20T17:05:50;6.10;99.90
16968;DHT22;64862;54.398;10.126;2023-12-20T17:15:53;6.10;99.90
16968;DHT22;64862;54.398;10.126;2023-12-20T17:25:55;6.20;99.90
16968;DHT22;64862;54.398;10.126;2023-12-20T17:35:58;6.10;99.90
16968;DHT22;64862;54.398;10.126;2023-12-20T17:46:00;6.20;99.90
16968;DHT22;64862;54.398;10.126;2023-12-20T17:56:05;6.10;99.90
16968;DHT22;64862;54.398;10.126;2023-12-20T18:06:07;6.20;99.90
16968;DHT22;64862;54.398;10.126;2023-12-20T18:16:10;6.20;99.90
16968;DHT22;64862;54.398;10.126;2023-12-20T18:26:12;6.20;99.90
16968;DHT22;64862;54.398;10.126;2023-12-20T18:36:15;6.20;99.90
16968;DHT22;64862;54.398;10.126;2023-12-20T18:46:17;6.30;99.90
16968;DHT22;64862;54.398;10.126;2023-12-20T18:56:22;6.10;99.90
16968;DHT22;64862;54.398;10.126;2023-12-20T19:06:24;6.10;99.90
16968;DHT22;64862;54.398;10.126;2023-12-20T19:16:27;6.10;99.90
16968;DHT22;64862;54.398;10.126;2023-12-20T19:26:29;6.10;99.90
16968;DHT22;64862;54.398;10.126;2023-12-20T19:36:33;6.10;99.90
16968;DHT22;64862;54.398;10.126;2023-12-20T19:46:35;6.10;99.90
16968;DHT22;64862;54.398;10.126;2023-12-20T19:56:38;6.10;99.90
16968;DHT22;64862;54.398;10.126;2023-12-20T20:06:40;6.00;99.90
16968;DHT22;64862;54.398;10.126;2023-12-20T20:16:44;5.90;99.90
16968;DHT22;64862;54.398;10.126;2023-12-20T20:26:46;6.00;99.90
16968;DHT22;64862;54.398;10.126;2023-12-20T20:36:50;6.10;99.90
16968;DHT22;64862;54.398;10.126;2023-12-20T20:46:52;6.20;99.90
16968;DHT22;64862;54.398;10.126;2023-12-20T20:56:55;6.40;99.90
16968;DHT22;64862;54.398;10.126;2023-12-20T21:06:57;6.40;99.90
16968;DHT22;64862;54.398;10.126;2023-12-20T21:17:01;6.50;99.90
16968;DHT22;64862;54.398;10.126;2023-12-20T21:27:03;6.50;99.90
16968;DHT22;64862;54.398;10.126;2023-12-20T21:37:07;6.40;99.90
16968;DHT22;64862;54.398;10.126;2023-12-20T21:47:09;6.40;99.90
16968;DHT22;64862;54.398;10.126;2023-12-20T21:57:12;6.30;99.90
16968;DHT22;64862;54.398;10.126;2023-12-20T22:07:14;6.40;99.90
16968;DHT22;64862;54.398;10.126;2023-12-20T22:17:18;6.40;99.90
16968;DHT22;64862;54.398;10.126;2023-12-20T22:27:20;6.40;99.90
16968;DHT22;64862;54.398;10.126;2023-12-20T22:37:23;6.50;99.90
16968;DHT22;64862;54.398;10.126;2023-12-20T22:47:25;6.50;99.90
16968;DHT22;64862;54.398;10.126;2023-12-20T22:57:29;6.50;99.90
16968;DHT22;64862;54.398;10.126;2023-12-20T23:07:30;6.60;99.90
16968;DHT22;64862;54.398;10.126;2023-12-20T23:17:34;6.60;99.90
16968;DHT22;64862;54.398;10.126;2023-12-20T23:27:36;6.80;99.90
16968;DHT22;64862;54.398;10.126;2023-12-20T23:37:39;6.90;99.90
16968;DHT22;64862;54.398;10.126;2023-12-20T23:47:41;7.00;99.90
16968;DHT22;64862;54.398;10.126;2023-12-20T23:57:46;6.90;99.90
